Time;durP1;ratioP1;P1;durP2;ratioP2;P2;SDS_P1;SDS_P2;PMS_P1;PMS_P2;Temp;Humidity;BMP_temperature;BMP_pressure;BME280_temperature;BME280_humidity;BME280_pressure;Samples;Min_cycle;Max_cycle;Signal;HPM_P1;HPM_P2
2023/08/27 00:00:28;;;;;;;8.95;7.13;;;;;;;14.13;100.00;100708.69;5091941;28;20032;-59
2023/08/27 00:02:53;;;;;;;11.20;7.25;;;;;;;14.52;100.00;100772.94;5092923;28;20036;-54
2023/08/27 00:05:19;;;;;;;8.18;7.38;;;;;;;14.29;100.00;100728.19;5092885;28;20050;-58
2023/08/27 00:07:44;;;;;;;9.50;7.85;;;;;;;14.43;100.00;100752.22;5090876;28;20044;-60
2023/08/27 00:10:10;;;;;;;9.70;7.50;;;;;;;14.60;100.00;100776.94;5093111;28;20036;-61
2023/08/27 00:12:35;;;;;;;11.85;8.13;;;;;;;14.63;100.00;100784.72;5091654;28;20543;-57
2023/08/27 00:15:00;;;;;;;10.80;8.50;;;;;;;14.62;100.00;100777.69;5092936;28;20040;-57
2023/08/27 00:17:27;;;;;;;12.02;8.15;;;;;;;14.64;100.00;100767.91;5092799;28;20040;-58
2023/08/27 00:19:52;;;;;;;10.10;9.00;;;;;;;14.28;100.00;100707.91;5091636;28;20032;-57
2023/08/27 00:22:18;;;;;;;12.75;9.23;;;;;;;14.24;100.00;100709.88;5093067;28;20521;-58
2023/08/27 00:24:43;;;;;;;11.48;8.77;;;;;;;14.61;100.00;100762.75;5090637;28;20036;-59
2023/08/27 00:27:09;;;;;;;12.95;9.38;;;;;;;14.56;100.00;100753.34;5092774;28;20035;-54
2023/08/27 00:29:34;;;;;;;10.32;8.75;;;;;;;14.57;100.00;100765.63;5092700;28;20036;-60
2023/08/27 00:32:00;;;;;;;9.27;8.35;;;;;;;14.50;100.00;100764.22;5092388;28;20152;-58
2023/08/27 00:34:32;;;;;;;11.05;8.88;;;;;;;14.47;100.00;100757.31;5090810;28;20032;-52
2023/08/27 00:36:59;;;;;;;14.30;9.65;;;;;;;14.37;100.00;100742.78;5092467;28;20034;-57
2023/08/27 00:39:25;;;;;;;11.25;9.32;;;;;;;14.35;100.00;100747.31;5090257;28;20127;-57
2023/08/27 00:41:50;;;;;;;10.65;8.63;;;;;;;14.14;100.00;100707.75;5090904;28;20130;-57
2023/08/27 00:44:15;;;;;;;13.48;8.90;;;;;;;13.95;100.00;100679.53;5092355;28;20039;-55
2023/08/27 00:46:41;;;;;;;13.48;8.25;;;;;;;14.32;100.00;100744.81;5092146;28;20044;-58
2023/08/27 00:49:06;;;;;;;10.35;9.18;;;;;;;13.63;100.00;100626.47;5092226;28;20054;-58
2023/08/27 00:51:32;;;;;;;11.63;7.90;;;;;;;14.30;100.00;100741.31;5091358;28;20132;-60
2023/08/27 00:53:58;;;;;;;11.80;8.00;;;;;;;13.96;100.00;100673.31;5092488;28;20063;-57
2023/08/27 00:56:24;;;;;;;13.63;7.53;;;;;;;14.26;100.00;100723.91;5092184;28;20403;-58
2023/08/27 00:58:49;;;;;;;12.38;8.00;;;;;;;13.63;100.00;100608.81;5091081;28;20035;-56
2023/08/27 01:01:15;;;;;;;10.38;7.60;;;;;;;14.21;100.00;100702.09;5090761;28;20090;-60
2023/08/27 01:03:41;;;;;;;11.90;7.13;;;;;;;14.14;100.00;100684.78;5092057;28;20028;-59
2023/08/27 01:06:07;;;;;;;9.95;7.00;;;;;;;14.37;100.00;100724.25;5092115;28;20085;-58
2023/08/27 01:08:54;;;;;;;8.40;7.18;;;;;;;13.99;100.00;100652.00;5090908;28;20131;-55
2023/08/27 01:11:47;;;;;;;8.25;7.45;;;;;;;14.41;100.00;100715.22;5090822;28;20085;-55
2023/08/27 01:14:15;;;;;;;8.93;6.90;;;;;;;14.42;100.00;100719.56;5087028;28;20054;-55
2023/08/27 01:16:42;;;;;;;10.55;6.40;;;;;;;14.27;100.00;100687.69;5090535;28;20082;-57
2023/08/27 01:19:13;;;;;;;9.75;6.57;;;;;;;14.44;100.00;100704.50;5089311;28;20048;-56
2023/08/27 01:21:39;;;;;;;6.75;6.05;;;;;;;14.37;100.00;100689.81;5090188;28;20059;-54
2023/08/27 01:24:05;;;;;;;10.45;6.85;;;;;;;14.05;100.00;100641.09;5088405;28;20063;-57
2023/08/27 01:26:57;;;;;;;8.85;6.20;;;;;;;14.40;100.00;100689.69;5091403;28;20438;-57
2023/08/27 01:29:38;;;;;;;7.13;6.43;;;;;;;14.39;100.00;100689.78;5082875;28;20040;-58
2023/08/27 01:32:16;;;;;;;9.37;5.73;;;;;;;14.38;100.00;100699.50;5092067;28;20065;-57
2023/08/27 01:34:41;;;;;;;8.95;6.10;;;;;;;13.95;100.00;100621.31;5090648;28;20380;-56
2023/08/27 01:37:09;;;;;;;10.48;7.03;;;;;;;13.75;100.00;100602.06;5090817;28;20067;-56
2023/08/27 01:39:34;;;;;;;9.95;6.68;;;;;;;14.03;100.00;100634.19;5089671;28;20039;-56
2023/08/27 01:42:00;;;;;;;9.07;6.35;;;;;;;14.45;100.00;100692.94;5092014;28;21031;-54
2023/08/27 01:44:25;;;;;;;7.85;6.25;;;;;;;14.50;100.00;100695.38;5091776;28;20067;-57
2023/08/27 01:46:50;;;;;;;7.63;6.63;;;;;;;14.46;100.00;100684.06;5091778;28;20368;-54
2023/08/27 01:49:16;;;;;;;6.38;5.75;;;;;;;14.59;100.00;100708.16;5091554;28;20036;-56
2023/08/27 01:51:41;;;;;;;9.77;6.68;;;;;;;14.16;100.00;100621.16;5092051;28;20032;-56
2023/08/27 01:54:07;;;;;;;7.63;6.47;;;;;;;14.24;100.00;100621.66;5094673;28;20032;-57
2023/08/27 01:56:33;;;;;;;8.07;6.20;;;;;;;14.62;100.00;100676.22;5094739;28;20538;-56
2023/08/27 01:58:58;;;;;;;9.45;6.40;;;;;;;14.70;100.00;100689.03;5095394;28;20151;-57
2023/08/27 02:01:23;;;;;;;6.65;6.05;;;;;;;14.72;100.00;100695.97;5095542;28;20082;-58
2023/08/27 02:03:49;;;;;;;7.70;5.57;;;;;;;14.72;100.00;100689.81;5094142;28;20422;-55
2023/08/27 02:06:14;;;;;;;7.82;5.72;;;;;;;14.34;100.00;100615.84;5095373;28;20113;-54
2023/08/27 02:08:40;;;;;;;6.95;6.25;;;;;;;14.79;100.00;100691.22;5095220;28;20402;-57
2023/08/27 02:11:05;;;;;;;10.25;6.15;;;;;;;14.85;100.00;100702.38;5095753;28;20036;-59
2023/08/27 02:13:30;;;;;;;9.23;6.97;;;;;;;14.63;100.00;100657.56;5094109;28;20028;-57
2023/08/27 02:15:56;;;;;;;8.57;5.80;;;;;;;14.87;100.00;100687.25;5095286;28;20035;-59
2023/08/27 02:18:21;;;;;;;10.63;6.70;;;;;;;14.86;100.00;100680.22;5094977;28;20127;-56
2023/08/27 02:20:46;;;;;;;10.32;6.57;;;;;;;14.76;100.00;100651.63;5094974;28;20040;-57
2023/08/27 02:23:12;;;;;;;9.48;6.53;;;;;;;15.01;100.00;100681.19;5095200;28;20035;-54
2023/08/27 02:25:37;;;;;;;7.55;6.03;;;;;;;15.01;100.00;100674.09;5095177;28;20091;-58
2023/08/27 02:28:02;;;;;;;7.40;6.25;;;;;;;14.62;100.00;100609.97;5095400;28;20035;-54
2023/08/27 02:30:28;;;;;;;10.75;6.50;;;;;;;14.62;100.00;100609.97;5093849;28;20036;-58
2023/08/27 02:32:53;;;;;;;7.57;6.40;;;;;;;15.02;100.00;100683.78;5093350;28;20039;-60
2023/08/27 02:35:18;;;;;;;7.38;5.88;;;;;;;14.65;100.00;100607.19;5094417;28;20048;-56
2023/08/27 02:37:44;;;;;;;10.57;6.22;;;;;;;14.59;100.00;100604.84;5093197;28;20107;-57
2023/08/27 02:40:09;;;;;;;7.60;6.57;;;;;;;14.73;100.00;100650.00;5094588;28;20055;-58
2023/08/27 02:42:36;;;;;;;9.00;6.43;;;;;;;14.58;100.00;100611.06;5094738;28;20039;-57
2023/08/27 02:45:02;;;;;;;10.18;6.53;;;;;;;14.99;100.00;100691.91;5094706;28;20028;-57
2023/08/27 02:47:27;;;;;;;8.43;6.65;;;;;;;14.57;100.00;100618.16;5093517;28;20506;-58
2023/08/27 02:49:53;;;;;;;12.32;7.32;;;;;;;14.67;100.00;100641.53;5094336;28;20414;-58
2023/08/27 02:52:19;;;;;;;10.25;7.03;;;;;;;14.64;100.00;100637.25;5094725;28;20538;-56
2023/08/27 02:54:44;;;;;;;11.15;7.75;;;;;;;14.67;100.00;100622.97;5094320;28;20085;-58
2023/08/27 02:57:09;;;;;;;8.18;7.13;;;;;;;14.62;100.00;100632.00;5094486;28;20039;-56
2023/08/27 02:59:35;;;;;;;12.10;7.45;;;;;;;15.02;100.00;100693.53;5094461;28;20468;-58
2023/08/27 03:02:00;;;;;;;10.43;7.53;;;;;;;15.03;100.00;100692.59;5093135;28;20058;-57
2023/08/27 03:04:25;;;;;;;10.55;8.02;;;;;;;15.08;100.00;100690.56;5094000;28;20040;-56
2023/08/27 03:06:50;;;;;;;16.38;6.95;;;;;;;15.09;100.00;100690.44;5094492;28;20040;-61
2023/08/27 03:09:16;;;;;;;13.13;7.78;;;;;;;15.06;100.00;100681.84;5094642;28;20054;-55
2023/08/27 03:11:41;;;;;;;8.50;6.97;;;;;;;15.08;100.00;100702.03;5093903;28;20040;-57
2023/08/27 03:14:07;;;;;;;9.48;5.10;;;;;;;14.81;100.00;100665.50;5094070;28;20067;-58
2023/08/27 03:16:32;;;;;;;6.15;2.97;;;;;;;14.67;100.00;100668.88;5094519;28;20032;-58
2023/08/27 03:18:58;;;;;;;10.70;3.03;;;;;;;14.81;100.00;100715.84;5093174;28;20082;-56
2023/08/27 03:21:24;;;;;;;8.18;2.53;;;;;;;14.46;100.00;100715.84;5092897;28;20036;-54
2023/08/27 03:23:49;;;;;;;9.48;2.60;;;;;;;14.39;100.00;100734.78;5093951;28;20043;-52
2023/08/27 03:26:15;;;;;;;4.22;1.83;;;;;;;13.81;100.00;100674.06;5093968;28;20471;-56
2023/08/27 03:28:40;;;;;;;6.82;1.88;;;;;;;13.74;100.00;100679.72;5093680;28;20406;-55
2023/08/27 03:31:05;;;;;;;5.95;1.67;;;;;;;14.01;100.00;100729.50;5093691;28;20036;-56
2023/08/27 03:33:32;;;;;;;8.05;1.70;;;;;;;13.92;100.00;100715.88;5091746;28;20028;-53
2023/08/27 03:35:58;;;;;;;6.43;1.58;;;;;;;13.81;100.00;100723.47;5092390;28;20546;-56
2023/08/27 03:38:24;;;;;;;5.63;1.42;;;;;;;13.32;100.00;100645.56;5093230;28;20112;-59
2023/08/27 03:40:50;;;;;;;2.92;1.58;;;;;;;13.26;100.00;100640.56;5093331;28;20115;-54
2023/08/27 03:43:16;;;;;;;9.43;2.00;;;;;;;13.65;100.00;100711.91;5093716;28;20024;-54
2023/08/27 03:45:41;;;;;;;7.82;1.88;;;;;;;13.29;100.00;100648.34;5092199;28;20036;-54
2023/08/27 03:48:07;;;;;;;5.50;2.00;;;;;;;13.26;100.00;100640.56;5093420;28;20034;-58
2023/08/27 03:50:34;;;;;;;5.75;1.77;;;;;;;13.60;100.00;100677.72;5092105;28;20139;-51
2023/08/27 03:53:00;;;;;;;7.65;1.70;;;;;;;13.59;100.00;100659.28;5092238;28;20134;-55
2023/08/27 03:55:25;;;;;;;8.20;1.70;;;;;;;13.35;100.00;100600.50;5092190;28;20111;-53
2023/08/27 03:57:51;;;;;;;6.13;1.85;;;;;;;13.19;100.00;100591.59;5093398;28;20119;-53
2023/08/27 04:00:16;;;;;;;6.75;2.15;;;;;;;13.61;100.00;100657.41;5093041;28;20035;-57
2023/08/27 04:02:44;;;;;;;8.40;2.28;;;;;;;13.53;100.00;100665.72;5091984;28;20524;-52
2023/08/27 04:05:09;;;;;;;7.22;1.52;;;;;;;13.22;100.00;100605.47;5091443;28;20027;-52
2023/08/27 04:07:35;;;;;;;8.88;1.83;;;;;;;13.57;100.00;100669.94;5092793;28;20040;-56
2023/08/27 04:10:00;;;;;;;5.63;1.63;;;;;;;13.14;100.00;100590.91;5092776;28;20048;-53
2023/08/27 04:12:25;;;;;;;5.25;1.85;;;;;;;13.47;100.00;100651.00;5092057;28;20515;-52
2023/08/27 04:14:51;;;;;;;8.55;1.80;;;;;;;13.46;100.00;100657.22;5091416;28;20066;-54
2023/08/27 04:17:16;;;;;;;8.25;2.15;;;;;;;13.16;100.00;100620.78;5092145;28;20089;-52
2023/08/27 04:19:42;;;;;;;8.05;1.83;;;;;;;13.54;100.00;100688.59;5093135;28;20127;-57
2023/08/27 04:22:08;;;;;;;4.80;1.75;;;;;;;13.36;100.00;100669.16;5092761;28;20418;-54
2023/08/27 04:24:33;;;;;;;4.50;1.83;;;;;;;13.57;100.00;100693.75;5092910;28;20032;-56
2023/08/27 04:26:58;;;;;;;7.05;2.20;;;;;;;13.23;100.00;100638.06;5090447;28;20761;-55
2023/08/27 04:29:24;;;;;;;7.25;1.83;;;;;;;13.61;100.00;100695.31;5092681;28;20129;-55
2023/08/27 04:31:50;;;;;;;6.32;2.00;;;;;;;13.61;100.00;100695.31;5093085;28;20513;-54
2023/08/27 04:34:15;;;;;;;4.57;1.80;;;;;;;13.21;100.00;100630.22;5092506;28;20032;-55
2023/08/27 04:36:40;;;;;;;6.15;2.22;;;;;;;13.50;100.00;100676.44;5091483;28;20032;-55
2023/08/27 04:39:07;;;;;;;4.55;1.90;;;;;;;13.62;100.00;100693.53;5092648;28;20036;-59
2023/08/27 04:41:33;;;;;;;10.90;2.65;;;;;;;13.51;100.00;100686.94;5092577;28;20102;-57
2023/08/27 04:43:59;;;;;;;7.43;2.90;;;;;;;13.23;100.00;100638.94;5091409;28;20123;-54
2023/08/27 04:46:24;;;;;;;6.70;2.35;;;;;;;13.63;100.00;100693.44;5091151;28;20032;-56
2023/08/27 04:48:49;;;;;;;5.85;2.55;;;;;;;13.65;100.00;100686.31;5092448;28;20024;-58
2023/08/27 04:51:16;;;;;;;8.70;2.28;;;;;;;13.27;100.00;100632.59;5092223;28;20137;-55
2023/08/27 04:53:41;;;;;;;10.15;3.10;;;;;;;13.19;100.00;100628.59;5092357;28;20031;-56
2023/08/27 04:56:07;;;;;;;8.40;3.45;;;;;;;12.82;100.00;100572.09;5090970;28;20036;-57
2023/08/27 04:58:32;;;;;;;6.07;2.55;;;;;;;13.11;100.00;100621.00;5092132;28;20043;-55
2023/08/27 05:00:57;;;;;;;6.45;2.92;;;;;;;13.47;100.00;100690.66;5091152;28;20040;-55
2023/08/27 05:03:23;;;;;;;10.55;3.22;;;;;;;13.44;100.00;100688.16;5092403;28;20036;-54
2023/08/27 05:05:52;;;;;;;6.97;2.83;;;;;;;13.45;100.00;100707.53;5092108;28;20055;-53
2023/08/27 05:08:17;;;;;;;5.43;2.30;;;;;;;13.44;100.00;100705.81;5090723;28;20028;-56
2023/08/27 05:10:42;;;;;;;5.75;2.55;;;;;;;13.38;100.00;100690.22;5092192;28;20036;-55
2023/08/27 05:13:08;;;;;;;5.55;2.40;;;;;;;13.47;100.00;100700.38;5092020;28;20040;-59
2023/08/27 05:15:33;;;;;;;5.65;2.97;;;;;;;13.45;100.00;100708.41;5090901;28;20090;-56
2023/08/27 05:17:58;;;;;;;11.07;3.20;;;;;;;13.38;100.00;100692.88;5090617;28;20486;-54
2023/08/27 05:20:24;;;;;;;10.43;3.10;;;;;;;13.46;100.00;100702.16;5092158;28;20036;-56
2023/08/27 05:22:49;;;;;;;6.50;4.15;;;;;;;13.13;100.00;100644.72;5092574;28;20050;-55
2023/08/27 05:25:14;;;;;;;7.80;3.60;;;;;;;13.52;100.00;100699.25;5091984;28;20031;-55
2023/08/27 05:27:44;;;;;;;7.50;3.58;;;;;;;13.53;100.00;100689.53;5094068;28;20519;-57
2023/08/27 05:30:12;;;;;;;7.25;3.33;;;;;;;13.55;100.00;100695.59;5095703;28;20459;-55
2023/08/27 05:32:37;;;;;;;4.18;2.78;;;;;;;13.52;100.00;100682.50;5095104;28;20040;-54
2023/08/27 05:35:02;;;;;;;8.75;3.70;;;;;;;13.56;100.00;100668.22;5095775;28;20467;-54
2023/08/27 05:37:28;;;;;;;6.25;3.22;;;;;;;13.58;100.00;100676.94;5095987;28;20483;-56
2023/08/27 05:39:53;;;;;;;6.65;3.17;;;;;;;13.59;100.00;100672.50;5095932;28;20089;-54
2023/08/27 05:42:18;;;;;;;4.90;2.90;;;;;;;13.63;100.00;100676.75;5094468;28;20047;-54
2023/08/27 05:44:44;;;;;;;5.35;2.92;;;;;;;13.11;100.00;100570.78;5095684;28;20070;-53
2023/08/27 05:47:09;;;;;;;5.93;2.40;;;;;;;13.70;100.00;100654.34;5094777;28;20063;-56
2023/08/27 05:49:34;;;;;;;6.38;2.50;;;;;;;13.81;100.00;100665.25;5095776;28;20043;-52
2023/08/27 05:52:00;;;;;;;10.77;2.25;;;;;;;13.92;100.00;100661.16;5095418;28;20039;-54
2023/08/27 05:54:25;;;;;;;5.32;2.70;;;;;;;13.73;100.00;100614.50;5095622;28;20047;-56
2023/08/27 05:56:50;;;;;;;5.82;3.15;;;;;;;14.15;100.00;100640.66;5077307;28;20030;-54
2023/08/27 05:59:16;;;;;;;7.05;2.05;;;;;;;14.12;100.00;100611.69;5095382;28;20042;-54
2023/08/27 06:01:42;;;;;;;5.65;2.30;;;;;;;14.55;100.00;100665.06;5095481;28;20032;-55
2023/08/27 06:04:08;;;;;;;3.20;1.98;;;;;;;14.30;100.00;100594.88;5093059;28;20048;-57
2023/08/27 06:06:33;;;;;;;4.32;1.92;;;;;;;14.79;100.00;100652.34;5094306;28;20028;-55
2023/08/27 06:08:59;;;;;;;4.75;1.85;;;;;;;14.69;100.00;100626.38;5093906;28;20185;-56
2023/08/27 06:11:24;;;;;;;4.90;2.58;;;;;;;14.87;100.00;100666.03;5095087;28;20545;-53
2023/08/27 06:13:49;;;;;;;1.92;1.83;;;;;;;15.02;100.00;100670.53;5094995;28;20032;-53
2023/08/27 06:16:15;;;;;;;3.72;1.90;;;;;;;14.93;100.00;100639.22;5095323;28;20111;-59
2023/08/27 06:18:40;;;;;;;6.13;1.85;;;;;;;15.13;100.00;100652.25;5093759;28;20047;-55
2023/08/27 06:21:06;;;;;;;5.35;2.20;;;;;;;15.17;100.00;100640.56;5095002;28;20047;-56
2023/08/27 06:23:32;;;;;;;4.13;2.40;;;;;;;15.40;100.00;100651.69;5095227;28;20073;-57
2023/08/27 06:26:03;;;;;;;5.30;3.05;;;;;;;15.40;100.00;100622.50;5093764;28;20039;-58
2023/08/27 06:28:29;;;;;;;4.43;3.15;;;;;;;15.84;100.00;100651.88;5094955;28;20528;-55
2023/08/27 06:30:54;;;;;;;6.35;3.33;;;;;;;16.06;100.00;100661.19;5095133;28;20115;-56
2023/08/27 06:33:20;;;;;;;6.38;3.75;;;;;;;16.27;100.00;100654.63;5094897;28;20120;-54
2023/08/27 06:35:45;;;;;;;8.32;3.80;;;;;;;16.13;100.00;100598.81;5093551;28;20161;-54
2023/08/27 06:38:11;;;;;;;6.80;4.78;;;;;;;16.37;100.00;100620.41;5094193;28;20070;-57
2023/08/27 06:40:36;;;;;;;8.55;6.05;;;;;;;16.73;100.00;100660.75;5094377;28;20128;-57
2023/08/27 06:43:02;;;;;;;8.80;6.30;;;;;;;16.88;100.00;100672.25;5094308;28;20036;-55
2023/08/27 06:45:28;;;;;;;10.05;6.13;;;;;;;16.93;100.00;100667.50;5094996;28;20036;-56
2023/08/27 06:47:54;;;;;;;8.60;6.47;;;;;;;16.82;100.00;100654.00;5094757;28;20142;-56
2023/08/27 06:50:20;;;;;;;11.43;7.57;;;;;;;16.64;100.00;100618.78;5093522;28;20054;-57
2023/08/27 06:52:46;;;;;;;8.73;7.20;;;;;;;16.97;100.00;100678.81;5094449;28;20036;-55
2023/08/27 06:55:12;;;;;;;8.98;7.97;;;;;;;17.08;100.00;100682.50;5094408;28;20119;-55
2023/08/27 06:57:38;;;;;;;11.18;8.50;;;;;;;16.82;100.00;100622.09;5093160;28;20118;-55
2023/08/27 07:00:07;;;;;;;9.30;8.43;;;;;;;17.17;100.00;100671.31;5094558;28;20032;-54
2023/08/27 07:02:32;;;;;;;9.63;7.13;;;;;;;16.93;100.00;100621.47;5094343;28;20124;-56
2023/08/27 07:04:58;;;;;;;7.85;6.40;;;;;;;17.26;100.00;100675.19;5094615;28;20111;-55
2023/08/27 07:07:24;;;;;;;6.72;6.13;;;;;;;17.14;100.00;100667.97;5093140;28;20036;-54
2023/08/27 07:09:49;;;;;;;9.63;5.60;;;;;;;16.65;100.00;100612.50;5094080;28;20044;-55
2023/08/27 07:12:15;;;;;;;6.70;4.57;;;;;;;16.44;100.00;100608.47;5093888;28;20119;-56
2023/08/27 07:14:41;;;;;;;5.28;4.15;;;;;;;16.63;100.00;100656.94;5094099;28;20372;-56
2023/08/27 07:17:06;;;;;;;6.22;4.13;;;;;;;16.64;100.00;100671.06;5093878;28;20040;-56
2023/08/27 07:19:32;;;;;;;4.95;3.05;;;;;;;16.15;100.00;100604.03;5093910;28;20047;-56
2023/08/27 07:21:57;;;;;;;5.43;2.85;;;;;;;16.58;100.00;100666.13;5094078;28;20040;-55
2023/08/27 07:24:22;;;;;;;3.67;2.25;;;;;;;16.57;100.00;100659.97;5091502;28;20048;-56
2023/08/27 07:26:48;;;;;;;4.15;2.60;;;;;;;16.20;100.00;100549.69;5093923;28;20028;-60
2023/08/27 07:29:13;;;;;;;5.65;2.33;;;;;;;16.92;100.00;100633.91;5094002;28;20475;-55
2023/08/27 07:31:38;;;;;;;4.20;1.98;;;;;;;16.92;100.00;100554.13;5093792;28;20101;-58
2023/08/27 07:34:04;;;;;;;4.75;1.60;;;;;;;17.75;100.00;100617.91;5092340;28;20035;-57
2023/08/27 07:36:29;;;;;;;1.20;1.08;;;;;;;17.96;100.00;100642.28;5093698;28;20419;-55
2023/08/27 07:38:56;;;;;;;2.30;1.40;;;;;;;17.66;100.00;100583.91;5093406;28;20118;-57
2023/08/27 07:41:21;;;;;;;4.22;1.90;;;;;;;17.78;100.00;100598.22;5092328;28;20040;-56
2023/08/27 07:43:47;;;;;;;3.47;1.95;;;;;;;17.93;100.00;100579.44;5093505;28;20494;-56
2023/08/27 07:46:12;;;;;;;3.05;1.67;;;;;;;18.30;100.00;100590.28;5093397;28;20032;-58
2023/08/27 07:48:37;;;;;;;2.60;1.30;;;;;;;18.41;100.00;100582.41;5093607;28;20028;-56
2023/08/27 07:51:03;;;;;;;2.40;1.60;;;;;;;18.62;100.00;100593.44;5092151;28;20032;-54
2023/08/27 07:53:28;;;;;;;1.73;1.10;;;;;;;19.00;100.00;100653.78;5091984;28;20048;-55
2023/08/27 07:55:54;;;;;;;1.83;1.05;;;;;;;18.88;100.00;100645.81;5091997;28;20407;-57
2023/08/27 07:58:19;;;;;;;4.50;1.38;;;;;;;18.32;100.00;100607.88;5093326;28;20032;-56
2023/08/27 08:00:44;;;;;;;1.13;0.80;;;;;;;18.24;100.00;100675.97;5093626;28;20390;-58
2023/08/27 08:03:10;;;;;;;6.13;1.30;;;;;;;17.78;100.00;100656.78;5074788;28;20497;-56
2023/08/27 08:05:35;;;;;;;3.05;1.40;;;;;;;17.11;100.00;100605.19;5092775;28;20028;-57
2023/08/27 08:08:00;;;;;;;2.08;0.90;;;;;;;17.05;100.00;100666.75;5092939;28;20118;-55
2023/08/27 08:10:26;;;;;;;1.35;1.23;;;;;;;16.83;100.00;100669.03;5091354;28;20114;-58
2023/08/27 08:12:52;;;;;;;3.38;1.10;;;;;;;16.67;100.00;100663.75;5091035;28;20036;-57
2023/08/27 08:15:18;;;;;;;3.25;1.13;;;;;;;16.56;100.00;100663.56;5091526;28;20063;-54
2023/08/27 08:17:44;;;;;;;4.35;1.13;;;;;;;16.32;100.00;100647.22;5091366;28;20072;-54
2023/08/27 08:20:10;;;;;;;1.33;0.88;;;;;;;16.00;100.00;100591.66;5092843;28;20028;-55
2023/08/27 08:22:35;;;;;;;2.13;0.90;;;;;;;16.30;100.00;100658.91;5091671;28;20032;-57
2023/08/27 08:25:01;;;;;;;1.23;1.05;;;;;;;16.29;100.00;100679.28;5092746;28;20107;-58
2023/08/27 08:27:26;;;;;;;0.93;0.80;;;;;;;16.32;100.00;100672.94;5092680;28;20094;-54
2023/08/27 08:29:51;;;;;;;3.35;1.00;;;;;;;16.01;100.00;100607.50;5091591;28;20081;-52
2023/08/27 08:32:17;;;;;;;1.60;1.17;;;;;;;16.44;100.00;100676.66;5092376;28;20172;-57
2023/08/27 08:34:42;;;;;;;0.80;0.60;;;;;;;16.22;100.00;100632.81;5092634;28;20098;-57
2023/08/27 08:37:07;;;;;;;1.80;0.95;;;;;;;16.28;100.00;100623.63;5092603;28;20043;-56
2023/08/27 08:39:33;;;;;;;1.45;0.73;;;;;;;16.63;100.00;100702.13;5091112;28;20391;-57
2023/08/27 08:42:15;;;;;;;2.85;0.70;;;;;;;16.76;100.00;100702.22;5092360;28;20057;-55
2023/08/27 08:45:09;;;;;;;1.60;0.70;;;;;;;16.78;100.00;100705.66;5091161;28;20119;-55
2023/08/27 08:47:35;;;;;;;0.98;0.50;;;;;;;17.21;100.00;100706.56;5072032;28;20515;-55
2023/08/27 08:50:05;;;;;;;1.70;0.90;;;;;;;18.09;100.00;100699.13;5071980;28;20074;-55
2023/08/27 08:52:41;;;;;;;1.92;0.88;;;;;;;19.20;100.00;100704.91;5072454;28;20039;-55
2023/08/27 08:55:09;;;;;;;0.85;0.50;;;;;;;19.59;100.00;100688.75;5071787;28;20033;-58
2023/08/27 08:57:39;;;;;;;1.13;0.70;;;;;;;20.09;100.00;100736.69;5070521;28;20028;-57
2023/08/27 09:00:08;;;;;;;2.00;0.50;;;;;;;19.96;100.00;100661.09;5070449;28;20111;-56
2023/08/27 09:02:34;;;;;;;1.17;0.70;;;;;;;20.25;100.00;100719.53;5083529;28;20482;-56
2023/08/27 09:05:00;;;;;;;1.20;0.52;;;;;;;19.84;100.00;100711.88;5088382;28;20036;-60
2023/08/27 09:07:26;;;;;;;2.58;0.60;;;;;;;19.39;100.00;100692.84;5089560;28;20119;-57
2023/08/27 09:09:51;;;;;;;1.75;0.52;;;;;;;19.19;100.00;100709.38;5090265;28;20182;-55
2023/08/27 09:12:19;;;;;;;2.03;0.60;;;;;;;18.49;100.00;100666.25;5089554;28;20597;-57
2023/08/27 09:14:45;;;;;;;0.70;0.63;;;;;;;18.09;100.00;100653.84;5073591;28;20036;-55
2023/08/27 09:17:13;;;;;;;1.45;0.70;;;;;;;17.75;100.00;100625.03;5090851;28;20035;-57
2023/08/27 09:19:38;;;;;;;0.77;0.60;;;;;;;17.80;100.00;100690.38;5090434;28;20135;-55
2023/08/27 09:22:04;;;;;;;1.58;0.75;;;;;;;17.36;100.00;100671.88;5089587;28;20119;-57
2023/08/27 09:24:29;;;;;;;2.80;0.90;;;;;;;17.18;100.00;100694.31;5092158;28;20181;-57
2023/08/27 09:26:54;;;;;;;0.85;0.50;;;;;;;16.51;100.00;100633.72;5092124;28;20043;-51
2023/08/27 09:29:21;;;;;;;1.15;0.52;;;;;;;16.42;100.00;100654.66;5091952;28;20483;-56
2023/08/27 09:31:47;;;;;;;1.50;0.80;;;;;;;15.99;100.00;100632.44;5090575;28;20059;-57
2023/08/27 09:34:18;;;;;;;0.65;0.65;;;;;;;15.84;100.00;100641.28;5091768;28;20067;-60
2023/08/27 09:36:44;;;;;;;0.70;0.60;;;;;;;15.92;100.00;100694.75;5090907;28;20099;-55
2023/08/27 09:39:11;;;;;;;2.45;0.70;;;;;;;15.72;100.00;100688.78;5091889;28;20044;-52
2023/08/27 09:41:38;;;;;;;2.05;0.85;;;;;;;15.16;100.00;100630.00;5090654;28;20039;-57
2023/08/27 09:44:05;;;;;;;1.10;0.77;;;;;;;14.96;100.00;100622.28;5091631;28;20047;-57
2023/08/27 09:46:30;;;;;;;2.05;0.75;;;;;;;15.18;100.00;100670.53;5090182;28;20024;-56
2023/08/27 09:49:00;;;;;;;1.73;0.93;;;;;;;15.05;100.00;100667.72;5091541;28;20039;-55
2023/08/27 09:51:27;;;;;;;1.40;0.98;;;;;;;14.63;100.00;100603.72;5073464;28;20459;-53
2023/08/27 09:53:52;;;;;;;2.83;1.35;;;;;;;14.93;100.00;100671.00;5089402;28;20437;-55
2023/08/27 09:56:21;;;;;;;2.05;1.02;;;;;;;14.56;100.00;100618.25;5091804;28;20062;-59
2023/08/27 09:58:47;;;;;;;3.92;1.33;;;;;;;14.84;100.00;100687.41;5091480;28;20028;-53
2023/08/27 10:01:13;;;;;;;3.45;1.00;;;;;;;14.76;100.00;100668.41;5091507;28;20066;-55
2023/08/27 10:03:38;;;;;;;2.65;0.93;;;;;;;14.65;100.00;100663.63;5091758;28;20028;-56
2023/08/27 10:06:03;;;;;;;5.30;1.55;;;;;;;14.37;100.00;100618.34;5090181;28;20066;-54
2023/08/27 10:08:29;;;;;;;2.33;1.00;;;;;;;14.51;100.00;100642.31;5091741;28;20391;-56
2023/08/27 10:11:10;;;;;;;1.38;0.90;;;;;;;14.82;100.00;100683.97;5089231;28;20112;-55
2023/08/27 10:13:37;;;;;;;3.42;1.05;;;;;;;14.84;100.00;100676.78;5091655;28;20387;-57
2023/08/27 10:16:02;;;;;;;4.80;1.38;;;;;;;14.94;100.00;100679.84;5093747;28;20115;-56
2023/08/27 10:18:28;;;;;;;1.63;0.80;;;;;;;14.99;100.00;100683.09;5093560;28;20130;-57
2023/08/27 10:20:54;;;;;;;2.60;1.10;;;;;;;15.06;100.00;100671.22;5093505;28;20024;-56
2023/08/27 10:23:19;;;;;;;2.30;0.90;;;;;;;15.07;100.00;100678.22;5093609;28;20036;-57
2023/08/27 10:25:46;;;;;;;4.57;1.35;;;;;;;15.13;100.00;100683.19;5093689;28;20028;-56
2023/08/27 10:28:12;;;;;;;2.55;1.05;;;;;;;14.85;100.00;100614.91;5092498;28;20114;-56
2023/08/27 10:30:37;;;;;;;4.97;2.50;;;;;;;14.99;100.00;100611.53;5094823;28;20056;-54
2023/08/27 10:33:03;;;;;;;4.47;2.75;;;;;;;15.19;100.00;100612.16;5093498;28;20074;-56
2023/08/27 10:35:34;;;;;;;2.45;0.98;;;;;;;15.96;100.00;100688.34;5093542;28;20028;-58
2023/08/27 10:37:59;;;;;;;5.00;1.08;;;;;;;15.83;100.00;100620.97;5076518;28;20035;-56
2023/08/27 10:40:25;;;;;;;3.13;1.23;;;;;;;16.00;100.00;100626.16;5094466;28;20029;-59
2023/08/27 10:42:50;;;;;;;1.52;0.90;;;;;;;16.24;100.00;100628.25;5092261;28;20122;-56
2023/08/27 10:45:18;;;;;;;3.33;1.23;;;;;;;16.42;100.00;100636.06;5094412;28;20067;-56
2023/08/27 10:48:10;;;;;;;2.33;1.02;;;;;;;17.05;100.00;100698.66;5094810;28;20047;-55
2023/08/27 10:51:01;;;;;;;;;;;;;;;17.45;100.00;100705.88;5094934;28;20522;-56
2023/08/27 10:53:58;;;;;;;2.35;1.27;;;;;;;17.89;100.00;100707.56;5090109;28;19947;-56
2023/08/27 10:56:32;;;;;;;4.60;1.30;;;;;;;18.57;100.00;100726.16;5093446;28;20181;-59
2023/08/27 10:59:00;;;;;;;4.75;1.40;;;;;;;18.92;100.00;100709.47;5092869;28;20097;-56
2023/08/27 11:01:26;;;;;;;3.25;1.02;;;;;;;19.56;100.00;100715.66;5093984;28;20032;-57
2023/08/27 11:03:57;;;;;;;1.63;1.05;;;;;;;20.23;100.00;100733.84;5094089;28;20386;-58
2023/08/27 11:06:48;;;;;;;1.75;0.70;;;;;;;20.62;100.00;100743.44;5094340;28;20161;-57
2023/08/27 11:09:15;;;;;;;3.80;0.90;;;;;;;20.80;100.00;100753.69;5094294;28;20384;-58
2023/08/27 11:11:44;;;;;;;1.83;0.50;;;;;;;20.91;100.00;100753.72;5093838;28;20032;-57
2023/08/27 11:14:10;;;;;;;2.25;0.70;;;;;;;20.58;100.00;100706.31;5092776;28;20024;-53